sensor_id;sensor_type;location;lat;lon;timestamp;pressure;altitude;pressure_sealevel;temperature;humidity
10145;BME280;5113;41.822;23.564;2023-12-29T00:02:41;-11134.06;;;7.22;54.27
10145;BME280;5113;41.822;23.564;2023-12-29T00:05:49;-11123.25;;;6.83;55.89
10145;BME280;5113;41.822;23.564;2023-12-29T00:08:56;-11128.88;;;7.04;55.00
10145;BME280;5113;41.822;23.564;2023-12-29T00:12:05;-11138.84;;;7.40;54.56
10145;BME280;5113;41.822;23.564;2023-12-29T00:15:16;-11108.94;;;6.32;56.01
10145;BME280;5113;41.822;23.564;2023-12-29T00:18:23;-11085.19;;;5.46;58.66
10145;BME280;5113;41.822;23.564;2023-12-29T00:21:31;-11107.81;;;6.27;56.58
10145;BME280;5113;41.822;23.564;2023-12-29T00:24:38;-11070.59;;;4.93;59.43
10145;BME280;5113;41.822;23.564;2023-12-29T00:27:45;-11096.44;;;5.86;57.07
10145;BME280;5113;41.822;23.564;2023-12-29T00:30:51;-11124.09;;;6.86;55.13
10145;BME280;5113;41.822;23.564;2023-12-29T00:34:06;-11116.81;;;6.60;55.45
10145;BME280;5113;41.822;23.564;2023-12-29T00:37:15;-11122.97;;;6.82;55.72
10145;BME280;5113;41.822;23.564;2023-12-29T00:40:21;-11119.03;;;6.68;55.59
10145;BME280;5113;41.822;23.564;2023-12-29T00:43:28;-11106.97;;;6.24;56.19
10145;BME280;5113;41.822;23.564;2023-12-29T00:46:35;-11080.00;;;5.27;57.93
10145;BME280;5113;41.822;23.564;2023-12-29T00:49:41;-11091.38;;;5.68;57.32
10145;BME280;5113;41.822;23.564;2023-12-29T00:52:49;-11097.84;;;5.91;56.57
10145;BME280;5113;41.822;23.564;2023-12-29T00:55:55;-11103.88;;;6.13;55.91
10145;BME280;5113;41.822;23.564;2023-12-29T00:59:02;-11109.50;;;6.34;55.87
10145;BME280;5113;41.822;23.564;2023-12-29T01:02:09;-11102.06;;;6.07;56.17
10145;BME280;5113;41.822;23.564;2023-12-29T01:05:16;-11070.03;;;4.91;58.73
10145;BME280;5113;41.822;23.564;2023-12-29T01:08:24;-11059.53;;;4.53;61.26
10145;BME280;5113;41.822;23.564;2023-12-29T01:11:31;-11046.59;;;4.06;62.80
10145;BME280;5113;41.822;23.564;2023-12-29T01:14:37;-11102.06;;;6.07;57.55
10145;BME280;5113;41.822;23.564;2023-12-29T01:17:44;-11065.28;;;4.74;60.25
10145;BME280;5113;41.822;23.564;2023-12-29T01:20:51;-11084.06;;;5.42;58.23
10145;BME280;5113;41.822;23.564;2023-12-29T01:23:59;-11095.44;;;5.83;57.78
10145;BME280;5113;41.822;23.564;2023-12-29T01:27:06;-11094.88;;;5.81;58.48
10145;BME280;5113;41.822;23.564;2023-12-29T01:30:13;-11107.81;;;6.27;57.34
10145;BME280;5113;41.822;23.564;2023-12-29T01:33:19;-11112.72;;;6.45;56.64
10145;BME280;5113;41.822;23.564;2023-12-29T01:36:26;-11118.06;;;6.65;55.95
10145;BME280;5113;41.822;23.564;2023-12-29T01:39:34;-11116.66;;;6.59;56.39
10145;BME280;5113;41.822;23.564;2023-12-29T01:42:42;-11114.41;;;6.51;56.91
10145;BME280;5113;41.822;23.564;2023-12-29T01:45:48;-11106.28;;;6.22;56.81
10145;BME280;5113;41.822;23.564;2023-12-29T01:49:02;-11108.78;;;6.31;56.78
10145;BME280;5113;41.822;23.564;2023-12-29T01:52:08;-11101.22;;;6.04;56.58
10145;BME280;5113;41.822;23.564;2023-12-29T01:55:18;-11077.06;;;5.16;58.15
10145;BME280;5113;41.822;23.564;2023-12-29T01:58:27;-11098.13;;;5.92;56.28
10145;BME280;5113;41.822;23.564;2023-12-29T02:01:35;-11097.56;;;5.90;55.36
10145;BME280;5113;41.822;23.564;2023-12-29T02:04:42;-11074.53;;;5.07;58.69
10145;BME280;5113;41.822;23.564;2023-12-29T02:07:51;-11079.88;;;5.26;59.38
10145;BME280;5113;41.822;23.564;2023-12-29T02:10:59;-11089.97;;;5.63;57.69
10145;BME280;5113;41.822;23.564;2023-12-29T02:14:07;-11056.44;;;4.42;60.62
10145;BME280;5113;41.822;23.564;2023-12-29T02:17:17;-11065.69;;;4.75;59.84
10145;BME280;5113;41.822;23.564;2023-12-29T02:20:29;-11098.25;;;5.93;56.63
10145;BME280;5113;41.822;23.564;2023-12-29T02:23:36;-11097.41;;;5.90;56.49
10145;BME280;5113;41.822;23.564;2023-12-29T02:26:47;-11107.41;;;6.26;55.61
10145;BME280;5113;41.822;23.564;2023-12-29T02:30:06;-11088.28;;;5.57;57.96
10145;BME280;5113;41.822;23.564;2023-12-29T02:33:19;-11109.63;;;6.34;56.16
10145;BME280;5113;41.822;23.564;2023-12-29T02:36:27;-11092.78;;;5.73;57.72
10145;BME280;5113;41.822;23.564;2023-12-29T02:39:34;-11079.59;;;5.25;61.29
10145;BME280;5113;41.822;23.564;2023-12-29T02:42:46;-11092.94;;;5.74;58.98
10145;BME280;5113;41.822;23.564;2023-12-29T02:45:54;-11088.28;;;5.57;58.25
10145;BME280;5113;41.822;23.564;2023-12-29T02:49:01;-11033.56;;;3.59;61.81
10145;BME280;5113;41.822;23.564;2023-12-29T02:52:08;-11044.22;;;3.97;62.39
10145;BME280;5113;41.822;23.564;2023-12-29T02:55:15;-11058.53;;;4.49;59.52
10145;BME280;5113;41.822;23.564;2023-12-29T02:58:23;-11078.19;;;5.20;58.17
10145;BME280;5113;41.822;23.564;2023-12-29T03:01:30;-11085.63;;;5.47;57.77
10145;BME280;5113;41.822;23.564;2023-12-29T03:04:37;-11053.75;;;4.32;61.67
10145;BME280;5113;41.822;23.564;2023-12-29T03:07:45;-11056.84;;;4.43;61.20
10145;BME280;5113;41.822;23.564;2023-12-29T03:10:52;-11075.09;;;5.09;58.72
10145;BME280;5113;41.822;23.564;2023-12-29T03:14:00;-11081.69;;;5.33;57.96
10145;BME280;5113;41.822;23.564;2023-12-29T03:17:07;-11072.84;;;5.01;59.54
10145;BME280;5113;41.822;23.564;2023-12-29T03:20:13;-11073.97;;;5.05;59.23
10145;BME280;5113;41.822;23.564;2023-12-29T03:23:20;-11081.84;;;5.34;58.29
10145;BME280;5113;41.822;23.564;2023-12-29T03:26:27;-11072.44;;;5.00;58.81
10145;BME280;5113;41.822;23.564;2023-12-29T03:29:35;-11049.00;;;4.15;60.97
10145;BME280;5113;41.822;23.564;2023-12-29T03:32:42;-11057.00;;;4.44;61.62
10145;BME280;5113;41.822;23.564;2023-12-29T03:35:49;-11045.06;;;4.01;62.77
10145;BME280;5113;41.822;23.564;2023-12-29T03:38:55;-11073.56;;;5.04;60.25
10145;BME280;5113;41.822;23.564;2023-12-29T03:42:02;-11074.25;;;5.06;58.71
10145;BME280;5113;41.822;23.564;2023-12-29T03:45:10;-11066.53;;;4.78;60.02
10145;BME280;5113;41.822;23.564;2023-12-29T03:48:17;-11094.19;;;5.78;57.08
10145;BME280;5113;41.822;23.564;2023-12-29T03:51:24;-11071.31;;;4.95;59.83
10145;BME280;5113;41.822;23.564;2023-12-29T03:54:31;-11092.94;;;5.74;58.14
10145;BME280;5113;41.822;23.564;2023-12-29T03:57:37;-11076.91;;;5.16;58.32
10145;BME280;5113;41.822;23.564;2023-12-29T04:00:46;-11024.59;;;3.26;62.49
10145;BME280;5113;41.822;23.564;2023-12-29T04:03:52;-11050.41;;;4.20;60.00
10145;BME280;5113;41.822;23.564;2023-12-29T04:06:59;-11019.81;;;3.09;64.14
10145;BME280;5113;41.822;23.564;2023-12-29T04:10:06;-11030.91;;;3.49;62.66
10145;BME280;5113;41.822;23.564;2023-12-29T04:13:14;-11044.94;;;4.00;62.17
10145;BME280;5113;41.822;23.564;2023-12-29T04:16:22;-11057.00;;;4.44;62.11
10145;BME280;5113;41.822;23.564;2023-12-29T04:19:29;-11041.41;;;3.87;63.11
10145;BME280;5113;41.822;23.564;2023-12-29T04:22:36;-11059.25;;;4.52;61.83
10145;BME280;5113;41.822;23.564;2023-12-29T04:25:43;-11058.81;;;4.50;62.08
10145;BME280;5113;41.822;23.564;2023-12-29T04:28:49;-11068.34;;;4.85;60.83
10145;BME280;5113;41.822;23.564;2023-12-29T04:31:57;-11069.06;;;4.87;61.14
10145;BME280;5113;41.822;23.564;2023-12-29T04:35:05;-11073.12;;;5.02;60.29
10145;BME280;5113;41.822;23.564;2023-12-29T04:38:11;-11060.34;;;4.56;60.75
10145;BME280;5113;41.822;23.564;2023-12-29T04:41:18;-11064.56;;;4.71;61.60
10145;BME280;5113;41.822;23.564;2023-12-29T04:44:26;-11085.47;;;5.47;58.73
10145;BME280;5113;41.822;23.564;2023-12-29T04:47:34;-11029.63;;;3.45;64.88
10145;BME280;5113;41.822;23.564;2023-12-29T04:50:41;-11053.91;;;4.32;60.64
10145;BME280;5113;41.822;23.564;2023-12-29T04:53:48;-11017.56;;;3.01;68.44
10145;BME280;5113;41.822;23.564;2023-12-29T04:56:55;-11058.53;;;4.49;60.91
10145;BME280;5113;41.822;23.564;2023-12-29T05:00:02;-11032.56;;;3.55;65.41
10145;BME280;5113;41.822;23.564;2023-12-29T05:03:11;-11058.53;;;4.49;61.88
10145;BME280;5113;41.822;23.564;2023-12-29T05:06:18;-11065.97;;;4.76;60.81
10145;BME280;5113;41.822;23.564;2023-12-29T05:09:25;-11063.03;;;4.65;60.32
10145;BME280;5113;41.822;23.564;2023-12-29T05:12:31;-11063.31;;;4.67;59.87
10145;BME280;5113;41.822;23.564;2023-12-29T05:15:38;-11048.56;;;4.13;61.34
10145;BME280;5113;41.822;23.564;2023-12-29T05:18:46;-11070.47;;;4.92;59.92
10145;BME280;5113;41.822;23.564;2023-12-29T05:21:53;-11071.16;;;4.95;59.68
10145;BME280;5113;41.822;23.564;2023-12-29T05:25:00;-11047.31;;;4.09;60.41
10145;BME280;5113;41.822;23.564;2023-12-29T05:28:06;-11020.22;;;3.11;63.10
10145;BME280;5113;41.822;23.564;2023-12-29T05:31:13;-11027.94;;;3.39;62.90
10145;BME280;5113;41.822;23.564;2023-12-29T05:34:21;-11020.50;;;3.12;63.66
10145;BME280;5113;41.822;23.564;2023-12-29T05:37:28;-11033.84;;;3.60;61.24
10145;BME280;5113;41.822;23.564;2023-12-29T05:40:34;-11042.69;;;3.92;59.79
10145;BME280;5113;41.822;23.564;2023-12-29T05:43:41;-11058.25;;;4.48;59.39
10145;BME280;5113;41.822;23.564;2023-12-29T05:46:48;-11057.56;;;4.46;59.34
10145;BME280;5113;41.822;23.564;2023-12-29T05:49:57;-11066.66;;;4.79;58.31
10145;BME280;5113;41.822;23.564;2023-12-29T05:53:04;-11076.63;;;5.15;57.07
10145;BME280;5113;41.822;23.564;2023-12-29T05:56:12;-11080.44;;;5.28;56.59
10145;BME280;5113;41.822;23.564;2023-12-29T05:59:19;-11078.47;;;5.21;57.03
10145;BME280;5113;41.822;23.564;2023-12-29T06:02:26;-11070.19;;;4.91;56.84
10145;BME280;5113;41.822;23.564;2023-12-29T06:05:34;-11072.00;;;4.98;56.84
10145;BME280;5113;41.822;23.564;2023-12-29T06:08:41;-11054.88;;;4.36;57.78
10145;BME280;5113;41.822;23.564;2023-12-29T06:11:48;-11053.63;;;4.31;58.47
10145;BME280;5113;41.822;23.564;2023-12-29T06:14:55;-11063.03;;;4.65;57.58
10145;BME280;5113;41.822;23.564;2023-12-29T06:18:03;-11035.25;;;3.65;60.02
10145;BME280;5113;41.822;23.564;2023-12-29T06:21:12;-11027.25;;;3.36;61.89
10145;BME280;5113;41.822;23.564;2023-12-29T06:24:20;-11030.47;;;3.48;61.04
10145;BME280;5113;41.822;23.564;2023-12-29T06:27:27;-11034.81;;;3.63;60.88
10145;BME280;5113;41.822;23.564;2023-12-29T06:30:34;-11023.47;;;3.22;62.25
10145;BME280;5113;41.822;23.564;2023-12-29T06:33:40;-11032.56;;;3.55;63.07
10145;BME280;5113;41.822;23.564;2023-12-29T06:36:49;-11076.91;;;5.16;59.17
10145;BME280;5113;41.822;23.564;2023-12-29T06:39:56;-11045.50;;;4.02;60.74
10145;BME280;5113;41.822;23.564;2023-12-29T06:43:03;-11057.69;;;4.46;59.80
10145;BME280;5113;41.822;23.564;2023-12-29T06:46:09;-11073.56;;;5.04;59.26
10145;BME280;5113;41.822;23.564;2023-12-29T06:49:19;-11089.69;;;5.62;57.85
10145;BME280;5113;41.822;23.564;2023-12-29T06:52:27;-11087.59;;;5.54;58.28
10145;BME280;5113;41.822;23.564;2023-12-29T06:55:38;-11086.19;;;5.49;57.96
10145;BME280;5113;41.822;23.564;2023-12-29T06:58:45;-11076.34;;;5.14;58.80
10145;BME280;5113;41.822;23.564;2023-12-29T07:01:53;-11076.78;;;5.15;57.67
10145;BME280;5113;41.822;23.564;2023-12-29T07:05:00;-11069.75;;;4.90;58.89
10145;BME280;5113;41.822;23.564;2023-12-29T07:08:08;-11100.50;;;6.01;56.43
10145;BME280;5113;41.822;23.564;2023-12-29T07:11:15;-11107.81;;;6.27;56.76
10145;BME280;5113;41.822;23.564;2023-12-29T07:14:22;-11112.16;;;6.43;56.23
10145;BME280;5113;41.822;23.564;2023-12-29T07:17:29;-11115.53;;;6.55;56.24
10145;BME280;5113;41.822;23.564;2023-12-29T07:20:35;-11103.75;;;6.13;57.81
10145;BME280;5113;41.822;23.564;2023-12-29T07:23:44;-11105.72;;;6.20;58.23
10145;BME280;5113;41.822;23.564;2023-12-29T07:26:50;-11091.66;;;5.69;58.35
10145;BME280;5113;41.822;23.564;2023-12-29T07:29:58;-11102.91;;;6.10;58.45
10145;BME280;5113;41.822;23.564;2023-12-29T07:33:05;-11103.75;;;6.13;58.77
10145;BME280;5113;41.822;23.564;2023-12-29T07:36:11;-11095.72;;;5.84;60.10
10145;BME280;5113;41.822;23.564;2023-12-29T07:39:22;-11105.56;;;6.19;59.79
10145;BME280;5113;41.822;23.564;2023-12-29T07:42:29;-11128.47;;;7.02;58.94
10145;BME280;5113;41.822;23.564;2023-12-29T07:45:37;-11142.50;;;7.53;56.36
10145;BME280;5113;41.822;23.564;2023-12-29T07:48:44;-11145.47;;;7.63;56.75
10145;BME280;5113;41.822;23.564;2023-12-29T07:51:51;-11171.75;;;8.58;53.66
10145;BME280;5113;41.822;23.564;2023-12-29T07:54:59;-11190.72;;;9.27;53.13
10145;BME280;5113;41.822;23.564;2023-12-29T07:58:06;-11174.97;;;8.70;54.38
10145;BME280;5113;41.822;23.564;2023-12-29T08:01:15;-11183.53;;;9.01;53.23
10145;BME280;5113;41.822;23.564;2023-12-29T08:04:23;-11175.53;;;8.72;54.90
10145;BME280;5113;41.822;23.564;2023-12-29T08:07:30;-11203.78;;;9.74;52.65
10145;BME280;5113;41.822;23.564;2023-12-29T08:10:38;-11182.13;;;8.96;54.48
10145;BME280;5113;41.822;23.564;2023-12-29T08:13:47;-11222.63;;;10.42;51.07
10145;BME280;5113;41.822;23.564;2023-12-29T08:16:54;-11230.50;;;10.71;51.07
10145;BME280;5113;41.822;23.564;2023-12-29T08:20:02;-11235.31;;;10.88;49.98
10145;BME280;5113;41.822;23.564;2023-12-29T08:23:10;-11183.97;;;9.03;54.95
10145;BME280;5113;41.822;23.564;2023-12-29T08:26:18;-11187.19;;;9.14;54.73
10145;BME280;5113;41.822;23.564;2023-12-29T08:29:25;-11223.47;;;10.45;52.53
10145;BME280;5113;41.822;23.564;2023-12-29T08:32:32;-11203.22;;;9.72;54.43
10145;BME280;5113;41.822;23.564;2023-12-29T08:35:40;-11216.72;;;10.21;54.00
10145;BME280;5113;41.822;23.564;2023-12-29T08:38:48;-11231.06;;;10.73;53.20
10145;BME280;5113;41.822;23.564;2023-12-29T08:41:56;-11243.59;;;11.18;53.52
10145;BME280;5113;41.822;23.564;2023-12-29T08:45:04;-11235.59;;;10.89;54.33
10145;BME280;5113;41.822;23.564;2023-12-29T08:48:13;-11232.47;;;10.78;54.07
10145;BME280;5113;41.822;23.564;2023-12-29T08:51:24;-11237.13;;;10.95;54.14
10145;BME280;5113;41.822;23.564;2023-12-29T08:54:30;-11254.28;;;11.56;53.00
10145;BME280;5113;41.822;23.564;2023-12-29T08:57:38;-11233.03;;;10.80;54.68
10145;BME280;5113;41.822;23.564;2023-12-29T09:00:45;-11250.22;;;11.42;53.77
10145;BME280;5113;41.822;23.564;2023-12-29T09:03:52;-11241.47;;;11.10;54.71
10145;BME280;5113;41.822;23.564;2023-12-29T09:06:59;-11251.91;;;11.48;53.93
10145;BME280;5113;41.822;23.564;2023-12-29T09:10:06;-11258.94;;;11.73;53.43
10145;BME280;5113;41.822;23.564;2023-12-29T09:13:19;-11302.00;;;13.29;51.26
10145;BME280;5113;41.822;23.564;2023-12-29T09:16:27;-11260.34;;;11.78;54.09
10145;BME280;5113;41.822;23.564;2023-12-29T09:19:34;-11237.00;;;10.94;55.85
10145;BME280;5113;41.822;23.564;2023-12-29T09:22:44;-11266.97;;;12.02;53.64
10145;BME280;5113;41.822;23.564;2023-12-29T09:25:52;-11283.00;;;12.60;52.86
10145;BME280;5113;41.822;23.564;2023-12-29T09:29:00;-11280.59;;;12.51;54.16
10145;BME280;5113;41.822;23.564;2023-12-29T09:32:07;-11274.97;;;12.31;54.35
10145;BME280;5113;41.822;23.564;2023-12-29T09:35:14;-11307.91;;;13.50;51.11
10145;BME280;5113;41.822;23.564;2023-12-29T09:38:21;-11328.19;;;14.23;50.75
10145;BME280;5113;41.822;23.564;2023-12-29T09:41:28;-11293.28;;;12.97;51.99
10145;BME280;5113;41.822;23.564;2023-12-29T09:44:40;-11295.25;;;13.04;51.36
10145;BME280;5113;41.822;23.564;2023-12-29T09:47:51;-11318.19;;;13.87;50.42
10145;BME280;5113;41.822;23.564;2023-12-29T09:50:59;-11324.25;;;14.09;49.96
10145;BME280;5113;41.822;23.564;2023-12-29T09:54:06;-11325.78;;;14.14;50.16
10145;BME280;5113;41.822;23.564;2023-12-29T09:57:18;-11335.22;;;14.48;49.85
10145;BME280;5113;41.822;23.564;2023-12-29T10:00:27;-11314.69;;;13.74;50.05
10145;BME280;5113;41.822;23.564;2023-12-29T10:03:34;-11312.13;;;13.65;51.33
10145;BME280;5113;41.822;23.564;2023-12-29T10:06:44;-11297.22;;;13.11;52.40
10145;BME280;5113;41.822;23.564;2023-12-29T10:09:55;-11342.97;;;14.76;49.68
10145;BME280;5113;41.822;23.564;2023-12-29T10:13:04;-11363.13;;;15.49;47.75
10145;BME280;5113;41.822;23.564;2023-12-29T10:16:21;-11322.13;;;14.01;50.46
10145;BME280;5113;41.822;23.564;2023-12-29T10:19:37;-11363.41;;;15.50;47.02
10145;BME280;5113;41.822;23.564;2023-12-29T10:22:51;-11352.41;;;15.10;47.81
10145;BME280;5113;41.822;23.564;2023-12-29T10:25:58;-11316.94;;;13.82;49.88
10145;BME280;5113;41.822;23.564;2023-12-29T10:29:05;-11369.31;;;15.71;45.35
10145;BME280;5113;41.822;23.564;2023-12-29T10:32:15;-11362.28;;;15.46;46.15
10145;BME280;5113;41.822;23.564;2023-12-29T10:35:22;-11358.34;;;15.32;45.90
10145;BME280;5113;41.822;23.564;2023-12-29T10:38:31;-11338.63;;;14.61;46.92
10145;BME280;5113;41.822;23.564;2023-12-29T10:41:39;-11399.91;;;16.81;43.79
10145;BME280;5113;41.822;23.564;2023-12-29T10:44:46;-11388.47;;;16.40;43.88
10145;BME280;5113;41.822;23.564;2023-12-29T10:47:54;-11386.38;;;16.33;44.72
10145;BME280;5113;41.822;23.564;2023-12-29T10:51:01;-11410.19;;;17.19;41.76
10145;BME280;5113;41.822;23.564;2023-12-29T10:54:19;-11419.78;;;17.53;40.86
10145;BME280;5113;41.822;23.564;2023-12-29T10:57:27;-11390.88;;;16.49;43.05
10145;BME280;5113;41.822;23.564;2023-12-29T11:00:33;-11385.38;;;16.29;42.47
10145;BME280;5113;41.822;23.564;2023-12-29T11:03:41;-11407.09;;;17.07;41.13
10145;BME280;5113;41.822;23.564;2023-12-29T11:06:48;-11381.44;;;16.15;41.61
10145;BME280;5113;41.822;23.564;2023-12-29T11:10:00;-11376.94;;;15.99;44.23
10145;BME280;5113;41.822;23.564;2023-12-29T11:13:08;-11413.84;;;17.32;43.19
10145;BME280;5113;41.822;23.564;2023-12-29T11:16:22;-11380.75;;;16.12;45.20
10145;BME280;5113;41.822;23.564;2023-12-29T11:19:31;-11391.03;;;16.49;44.79
10145;BME280;5113;41.822;23.564;2023-12-29T11:22:39;-11427.38;;;17.80;42.80
10145;BME280;5113;41.822;23.564;2023-12-29T11:25:47;-11404.13;;;16.97;42.58
10145;BME280;5113;41.822;23.564;2023-12-29T11:28:54;-11457.97;;;18.91;39.78
10145;BME280;5113;41.822;23.564;2023-12-29T11:32:06;-11414.41;;;17.34;40.61
10145;BME280;5113;41.822;23.564;2023-12-29T11:35:23;-11416.38;;;17.41;41.45
10145;BME280;5113;41.822;23.564;2023-12-29T11:38:45;-11442.34;;;18.34;39.64
10145;BME280;5113;41.822;23.564;2023-12-29T11:42:01;-11427.81;;;17.82;39.89
10145;BME280;5113;41.822;23.564;2023-12-29T11:45:28;-11449.38;;;18.60;39.17
10145;BME280;5113;41.822;23.564;2023-12-29T11:49:02;-11444.59;;;18.42;37.14
10145;BME280;5113;41.822;23.564;2023-12-29T11:52:11;-11416.66;;;17.42;37.64
10145;BME280;5113;41.822;23.564;2023-12-29T11:55:21;-11460.25;;;18.99;34.69
10145;BME280;5113;41.822;23.564;2023-12-29T11:58:28;-11441.19;;;18.30;36.08
10145;BME280;5113;41.822;23.564;2023-12-29T12:01:36;-11472.50;;;19.43;35.03
10145;BME280;5113;41.822;23.564;2023-12-29T12:04:43;-11483.22;;;19.82;35.59
10145;BME280;5113;41.822;23.564;2023-12-29T12:07:58;-11477.31;;;19.60;37.05
10145;BME280;5113;41.822;23.564;2023-12-29T12:11:43;-11498.44;;;20.36;35.49
10145;BME280;5113;41.822;23.564;2023-12-29T12:14:51;-11475.75;;;19.55;35.27
10145;BME280;5113;41.822;23.564;2023-12-29T12:17:59;-11496.06;;;20.28;35.96
10145;BME280;5113;41.822;23.564;2023-12-29T12:21:09;-11467.44;;;19.25;37.33
10145;BME280;5113;41.822;23.564;2023-12-29T12:24:19;-11488.31;;;20.00;36.02
10145;BME280;5113;41.822;23.564;2023-12-29T12:27:27;-11476.19;;;19.56;36.23
10145;BME280;5113;41.822;23.564;2023-12-29T12:30:34;-11476.88;;;19.59;37.03
10145;BME280;5113;41.822;23.564;2023-12-29T12:33:42;-11462.91;;;19.08;36.50
10145;BME280;5113;41.822;23.564;2023-12-29T12:36:59;-11479.28;;;19.67;37.33
10145;BME280;5113;41.822;23.564;2023-12-29T12:40:11;-11477.44;;;19.61;36.96
10145;BME280;5113;41.822;23.564;2023-12-29T12:43:31;-11486.91;;;19.95;38.26
10145;BME280;5113;41.822;23.564;2023-12-29T12:46:41;-11483.66;;;19.83;35.26
10145;BME280;5113;41.822;23.564;2023-12-29T12:49:52;-11489.56;;;20.04;35.24
10145;BME280;5113;41.822;23.564;2023-12-29T12:52:59;-11513.13;;;20.89;35.05
10145;BME280;5113;41.822;23.564;2023-12-29T12:56:10;-11521.59;;;21.20;36.15
10145;BME280;5113;41.822;23.564;2023-12-29T12:59:17;-11516.50;;;21.01;34.69
10145;BME280;5113;41.822;23.564;2023-12-29T13:02:24;-11490.56;;;20.08;36.16
10145;BME280;5113;41.822;23.564;2023-12-29T13:05:31;-11515.94;;;20.99;35.58
10145;BME280;5113;41.822;23.564;2023-12-29T13:08:38;-11522.03;;;21.21;34.87
10145;BME280;5113;41.822;23.564;2023-12-29T13:11:49;-11506.34;;;20.65;35.48
10145;BME280;5113;41.822;23.564;2023-12-29T13:15:05;-11545.00;;;22.04;33.78
10145;BME280;5113;41.822;23.564;2023-12-29T13:18:14;-11532.47;;;21.59;34.82
10145;BME280;5113;41.822;23.564;2023-12-29T13:21:20;-11512.00;;;20.85;35.44
10145;BME280;5113;41.822;23.564;2023-12-29T13:24:27;-11518.78;;;21.09;36.04
10145;BME280;5113;41.822;23.564;2023-12-29T13:27:38;-11482.81;;;19.80;36.85
10145;BME280;5113;41.822;23.564;2023-12-29T13:30:47;-11498.75;;;20.37;36.42
10145;BME280;5113;41.822;23.564;2023-12-29T13:33:59;-11501.84;;;20.49;36.06
10145;BME280;5113;41.822;23.564;2023-12-29T13:37:14;-11511.44;;;20.83;35.52
10145;BME280;5113;41.822;23.564;2023-12-29T13:40:28;-11490.13;;;20.06;37.34
10145;BME280;5113;41.822;23.564;2023-12-29T13:43:43;-11494.78;;;20.23;37.30
10145;BME280;5113;41.822;23.564;2023-12-29T13:46:51;-11481.66;;;19.76;37.16
10145;BME280;5113;41.822;23.564;2023-12-29T13:49:59;-11448.53;;;18.57;39.81
10145;BME280;5113;41.822;23.564;2023-12-29T13:53:06;-11449.09;;;18.59;40.09
10145;BME280;5113;41.822;23.564;2023-12-29T13:56:13;-11424.84;;;17.71;41.32
10145;BME280;5113;41.822;23.564;2023-12-29T13:59:28;-11414.97;;;17.36;42.08
10145;BME280;5113;41.822;23.564;2023-12-29T14:02:39;-11414.41;;;17.34;42.18
10145;BME280;5113;41.822;23.564;2023-12-29T14:05:51;-11418.94;;;17.50;42.00
10145;BME280;5113;41.822;23.564;2023-12-29T14:08:58;-11352.97;;;15.12;45.26
10145;BME280;5113;41.822;23.564;2023-12-29T14:12:06;-11349.31;;;14.99;46.37
10145;BME280;5113;41.822;23.564;2023-12-29T14:15:14;-11336.94;;;14.54;47.17
10145;BME280;5113;41.822;23.564;2023-12-29T14:18:37;-11354.94;;;15.19;45.83
10145;BME280;5113;41.822;23.564;2023-12-29T14:21:50;-11327.22;;;14.19;48.36
10145;BME280;5113;41.822;23.564;2023-12-29T14:25:01;-11374.69;;;15.91;44.99
10145;BME280;5113;41.822;23.564;2023-12-29T14:28:14;-11382.84;;;16.20;44.25
10145;BME280;5113;41.822;23.564;2023-12-29T14:31:24;-11355.38;;;15.21;45.35
10145;BME280;5113;41.822;23.564;2023-12-29T14:34:31;-11330.72;;;14.32;47.23
10145;BME280;5113;41.822;23.564;2023-12-29T14:37:38;-11320.88;;;13.97;48.05
10145;BME280;5113;41.822;23.564;2023-12-29T14:40:45;-11353.97;;;15.16;46.05
10145;BME280;5113;41.822;23.564;2023-12-29T14:43:51;-11343.13;;;14.77;46.26
10145;BME280;5113;41.822;23.564;2023-12-29T14:46:59;-11346.78;;;14.90;46.47
10145;BME280;5113;41.822;23.564;2023-12-29T14:50:07;-11346.94;;;14.91;46.08
10145;BME280;5113;41.822;23.564;2023-12-29T14:53:13;-11349.88;;;15.01;46.42
10145;BME280;5113;41.822;23.564;2023-12-29T14:56:21;-11318.34;;;13.87;47.79
10145;BME280;5113;41.822;23.564;2023-12-29T14:59:27;-11312.41;;;13.66;47.69
10145;BME280;5113;41.822;23.564;2023-12-29T15:02:37;-11313.41;;;13.70;48.01
10145;BME280;5113;41.822;23.564;2023-12-29T15:05:44;-11301.72;;;13.28;47.84
10145;BME280;5113;41.822;23.564;2023-12-29T15:08:51;-11293.97;;;13.00;48.29
10145;BME280;5113;41.822;23.564;2023-12-29T15:11:58;-11312.84;;;13.68;47.32
10145;BME280;5113;41.822;23.564;2023-12-29T15:15:05;-11291.03;;;12.89;48.58
10145;BME280;5113;41.822;23.564;2023-12-29T15:18:14;-11278.63;;;12.44;51.06
10145;BME280;5113;41.822;23.564;2023-12-29T15:21:22;-11287.91;;;12.78;49.20
10145;BME280;5113;41.822;23.564;2023-12-29T15:24:29;-11300.03;;;13.21;48.09
10145;BME280;5113;41.822;23.564;2023-12-29T15:27:35;-11287.06;;;12.75;49.41
10145;BME280;5113;41.822;23.564;2023-12-29T15:30:42;-11291.31;;;12.90;49.06
10145;BME280;5113;41.822;23.564;2023-12-29T15:33:51;-11298.34;;;13.15;48.75
10145;BME280;5113;41.822;23.564;2023-12-29T15:36:58;-11264.16;;;11.92;51.38
10145;BME280;5113;41.822;23.564;2023-12-29T15:40:06;-11259.22;;;11.74;51.16
10145;BME280;5113;41.822;23.564;2023-12-29T15:43:13;-11290.03;;;12.85;49.27
10145;BME280;5113;41.822;23.564;2023-12-29T15:46:20;-11283.56;;;12.62;48.77
10145;BME280;5113;41.822;23.564;2023-12-29T15:49:30;-11274.97;;;12.31;50.60
10145;BME280;5113;41.822;23.564;2023-12-29T15:52:37;-11241.63;;;11.11;51.86
10145;BME280;5113;41.822;23.564;2023-12-29T15:55:44;-11201.53;;;9.66;55.21
10145;BME280;5113;41.822;23.564;2023-12-29T15:58:51;-11231.91;;;10.76;52.81
10145;BME280;5113;41.822;23.564;2023-12-29T16:01:58;-11227.84;;;10.61;52.68
10145;BME280;5113;41.822;23.564;2023-12-29T16:05:07;-11219.97;;;10.33;53.89
10145;BME280;5113;41.822;23.564;2023-12-29T16:08:14;-11228.25;;;10.63;53.32
10145;BME280;5113;41.822;23.564;2023-12-29T16:11:22;-11223.75;;;10.46;53.71
10145;BME280;5113;41.822;23.564;2023-12-29T16:14:29;-11235.59;;;10.89;52.69
10145;BME280;5113;41.822;23.564;2023-12-29T16:17:36;-11231.34;;;10.74;53.38
10145;BME280;5113;41.822;23.564;2023-12-29T16:20:44;-11208.56;;;9.91;55.43
10145;BME280;5113;41.822;23.564;2023-12-29T16:23:51;-11204.91;;;9.78;56.21
10145;BME280;5113;41.822;23.564;2023-12-29T16:26:57;-11216.16;;;10.19;54.82
10145;BME280;5113;41.822;23.564;2023-12-29T16:30:06;-11201.53;;;9.66;55.14
10145;BME280;5113;41.822;23.564;2023-12-29T16:33:13;-11195.91;;;9.46;56.61